sensor_id;sensor_type;location;lat;lon;timestamp;temperature;humidity
20831;DHT22;10576;53.556;9.868;2022-10-16T00:01:23;13.50;99.90
20831;DHT22;10576;53.556;9.868;2022-10-16T00:03:49;13.50;99.90
20831;DHT22;10576;53.556;9.868;2022-10-16T00:06:17;13.50;99.90
20831;DHT22;10576;53.556;9.868;2022-10-16T00:08:44;13.50;99.90
20831;DHT22;10576;53.556;9.868;2022-10-16T00:11:25;13.50;99.90
20831;DHT22;10576;53.556;9.868;2022-10-16T00:13:52;13.40;99.90
20831;DHT22;10576;53.556;9.868;2022-10-16T00:16:20;13.50;99.90
20831;DHT22;10576;53.556;9.868;2022-10-16T00:18:46;13.40;99.90
20831;DHT22;10576;53.556;9.868;2022-10-16T00:21:15;13.40;99.90
20831;DHT22;10576;53.556;9.868;2022-10-16T00:23:41;13.40;99.90
20831;DHT22;10576;53.556;9.868;2022-10-16T00:26:10;13.40;99.90
20831;DHT22;10576;53.556;9.868;2022-10-16T00:28:36;13.40;99.90
20831;DHT22;10576;53.556;9.868;2022-10-16T00:31:07;13.40;99.90
20831;DHT22;10576;53.556;9.868;2022-10-16T00:33:34;13.40;99.90
20831;DHT22;10576;53.556;9.868;2022-10-16T00:36:01;13.30;99.90
20831;DHT22;10576;53.556;9.868;2022-10-16T00:38:26;13.30;99.90
20831;DHT22;10576;53.556;9.868;2022-10-16T00:40:52;13.30;99.90
20831;DHT22;10576;53.556;9.868;2022-10-16T00:46:02;13.30;99.90
20831;DHT22;10576;53.556;9.868;2022-10-16T00:48:29;13.30;99.90
20831;DHT22;10576;53.556;9.868;2022-10-16T00:50:56;13.30;99.90
20831;DHT22;10576;53.556;9.868;2022-10-16T00:53:23;13.20;99.90
20831;DHT22;10576;53.556;9.868;2022-10-16T00:55:49;13.20;99.90
20831;DHT22;10576;53.556;9.868;2022-10-16T00:58:15;13.20;99.90
20831;DHT22;10576;53.556;9.868;2022-10-16T01:00:40;13.20;99.90
20831;DHT22;10576;53.556;9.868;2022-10-16T01:03:24;13.20;99.90
20831;DHT22;10576;53.556;9.868;2022-10-16T01:09:14;13.20;99.90
20831;DHT22;10576;53.556;9.868;2022-10-16T01:11:49;13.20;99.90
20831;DHT22;10576;53.556;9.868;2022-10-16T01:16:58;13.10;99.90
20831;DHT22;10576;53.556;9.868;2022-10-16T01:21:57;13.00;99.90
20831;DHT22;10576;53.556;9.868;2022-10-16T01:27:10;13.00;99.90
20831;DHT22;10576;53.556;9.868;2022-10-16T01:32:42;12.90;99.90
20831;DHT22;10576;53.556;9.868;2022-10-16T01:35:21;12.90;99.90
20831;DHT22;10576;53.556;9.868;2022-10-16T01:38:01;12.90;99.90
20831;DHT22;10576;53.556;9.868;2022-10-16T01:40:30;12.80;99.90
20831;DHT22;10576;53.556;9.868;2022-10-16T01:43:03;12.80;99.90
20831;DHT22;10576;53.556;9.868;2022-10-16T01:45:31;12.80;99.90
20831;DHT22;10576;53.556;9.868;2022-10-16T01:48:00;12.70;99.90
20831;DHT22;10576;53.556;9.868;2022-10-16T01:50:32;12.60;99.90
20831;DHT22;10576;53.556;9.868;2022-10-16T01:52:59;12.70;99.90
20831;DHT22;10576;53.556;9.868;2022-10-16T01:55:33;12.70;99.90
20831;DHT22;10576;53.556;9.868;2022-10-16T01:58:01;12.60;99.90
20831;DHT22;10576;53.556;9.868;2022-10-16T02:00:29;12.60;99.90
20831;DHT22;10576;53.556;9.868;2022-10-16T02:02:57;12.60;99.90
20831;DHT22;10576;53.556;9.868;2022-10-16T02:05:30;12.60;99.90
20831;DHT22;10576;53.556;9.868;2022-10-16T02:07:57;12.50;99.90
20831;DHT22;10576;53.556;9.868;2022-10-16T02:10:24;12.50;99.90
20831;DHT22;10576;53.556;9.868;2022-10-16T02:12:56;12.50;99.90
20831;DHT22;10576;53.556;9.868;2022-10-16T02:15:23;12.50;99.90
20831;DHT22;10576;53.556;9.868;2022-10-16T02:17:48;12.50;99.90
20831;DHT22;10576;53.556;9.868;2022-10-16T02:20:14;12.50;99.90
20831;DHT22;10576;53.556;9.868;2022-10-16T02:22:43;12.50;99.90
20831;DHT22;10576;53.556;9.868;2022-10-16T02:28:04;12.40;99.90
20831;DHT22;10576;53.556;9.868;2022-10-16T02:30:36;12.30;99.90
20831;DHT22;10576;53.556;9.868;2022-10-16T02:33:07;12.30;99.90
20831;DHT22;10576;53.556;9.868;2022-10-16T02:35:34;12.30;99.90
20831;DHT22;10576;53.556;9.868;2022-10-16T02:38:00;12.20;99.90
20831;DHT22;10576;53.556;9.868;2022-10-16T02:40:26;12.20;99.90
20831;DHT22;10576;53.556;9.868;2022-10-16T02:42:53;12.20;99.90
20831;DHT22;10576;53.556;9.868;2022-10-16T02:45:20;12.20;99.90
20831;DHT22;10576;53.556;9.868;2022-10-16T02:47:46;12.20;99.90
20831;DHT22;10576;53.556;9.868;2022-10-16T02:50:12;12.10;99.90
20831;DHT22;10576;53.556;9.868;2022-10-16T02:52:37;12.10;99.90
20831;DHT22;10576;53.556;9.868;2022-10-16T02:55:03;12.10;99.90
20831;DHT22;10576;53.556;9.868;2022-10-16T02:57:29;12.10;99.90
20831;DHT22;10576;53.556;9.868;2022-10-16T02:59:55;12.10;99.90
20831;DHT22;10576;53.556;9.868;2022-10-16T03:02:20;12.00;99.90
20831;DHT22;10576;53.556;9.868;2022-10-16T03:04:46;12.00;99.90
20831;DHT22;10576;53.556;9.868;2022-10-16T03:07:12;12.00;99.90
20831;DHT22;10576;53.556;9.868;2022-10-16T03:09:37;12.00;99.90
20831;DHT22;10576;53.556;9.868;2022-10-16T03:12:03;12.00;99.90
20831;DHT22;10576;53.556;9.868;2022-10-16T03:14:29;11.90;99.90
20831;DHT22;10576;53.556;9.868;2022-10-16T03:16:55;11.90;99.90
20831;DHT22;10576;53.556;9.868;2022-10-16T03:19:20;11.90;99.90
20831;DHT22;10576;53.556;9.868;2022-10-16T03:21:46;11.80;99.90
20831;DHT22;10576;53.556;9.868;2022-10-16T03:24:12;11.90;99.90
20831;DHT22;10576;53.556;9.868;2022-10-16T03:26:37;11.90;99.90
20831;DHT22;10576;53.556;9.868;2022-10-16T03:29:03;11.90;99.90
20831;DHT22;10576;53.556;9.868;2022-10-16T03:31:29;11.90;99.90
20831;DHT22;10576;53.556;9.868;2022-10-16T03:33:55;11.80;99.90
20831;DHT22;10576;53.556;9.868;2022-10-16T03:36:21;11.90;99.90
20831;DHT22;10576;53.556;9.868;2022-10-16T03:38:47;11.80;99.90
20831;DHT22;10576;53.556;9.868;2022-10-16T03:41:12;11.80;99.90
20831;DHT22;10576;53.556;9.868;2022-10-16T03:43:38;11.80;99.90
20831;DHT22;10576;53.556;9.868;2022-10-16T03:46:04;11.80;99.90
20831;DHT22;10576;53.556;9.868;2022-10-16T03:48:30;11.80;99.90
20831;DHT22;10576;53.556;9.868;2022-10-16T03:50:56;11.80;99.90
20831;DHT22;10576;53.556;9.868;2022-10-16T03:53:21;11.80;99.90
20831;DHT22;10576;53.556;9.868;2022-10-16T03:55:47;11.90;99.90
20831;DHT22;10576;53.556;9.868;2022-10-16T03:58:13;11.90;99.90
20831;DHT22;10576;53.556;9.868;2022-10-16T04:00:42;11.90;99.90
20831;DHT22;10576;53.556;9.868;2022-10-16T04:03:08;11.90;99.90
20831;DHT22;10576;53.556;9.868;2022-10-16T04:05:34;11.90;99.90
20831;DHT22;10576;53.556;9.868;2022-10-16T04:08:00;11.90;99.90
20831;DHT22;10576;53.556;9.868;2022-10-16T04:10:25;11.80;99.90
20831;DHT22;10576;53.556;9.868;2022-10-16T04:12:51;11.90;99.90
20831;DHT22;10576;53.556;9.868;2022-10-16T04:15:17;11.80;99.90
20831;DHT22;10576;53.556;9.868;2022-10-16T04:17:42;11.90;99.90
20831;DHT22;10576;53.556;9.868;2022-10-16T04:20:08;11.80;99.90
20831;DHT22;10576;53.556;9.868;2022-10-16T04:22:34;11.80;99.90
20831;DHT22;10576;53.556;9.868;2022-10-16T04:24:59;11.80;99.90
20831;DHT22;10576;53.556;9.868;2022-10-16T04:27:25;11.80;99.90
20831;DHT22;10576;53.556;9.868;2022-10-16T04:29:51;11.80;99.90
20831;DHT22;10576;53.556;9.868;2022-10-16T04:32:16;11.80;99.90
20831;DHT22;10576;53.556;9.868;2022-10-16T04:34:42;11.80;99.90
20831;DHT22;10576;53.556;9.868;2022-10-16T04:37:07;11.80;99.90
20831;DHT22;10576;53.556;9.868;2022-10-16T04:39:33;11.90;99.90
20831;DHT22;10576;53.556;9.868;2022-10-16T04:41:59;11.90;99.90
20831;DHT22;10576;53.556;9.868;2022-10-16T04:44:25;11.90;99.90
20831;DHT22;10576;53.556;9.868;2022-10-16T04:46:51;11.90;99.90
20831;DHT22;10576;53.556;9.868;2022-10-16T04:49:17;11.90;99.90
20831;DHT22;10576;53.556;9.868;2022-10-16T04:51:42;11.80;99.90
20831;DHT22;10576;53.556;9.868;2022-10-16T04:54:09;11.80;99.90
20831;DHT22;10576;53.556;9.868;2022-10-16T04:56:34;11.70;99.90
20831;DHT22;10576;53.556;9.868;2022-10-16T04:59:08;11.70;99.90
20831;DHT22;10576;53.556;9.868;2022-10-16T05:01:33;11.80;99.90
20831;DHT22;10576;53.556;9.868;2022-10-16T05:03:59;11.80;99.90
20831;DHT22;10576;53.556;9.868;2022-10-16T05:06:24;11.80;99.90
20831;DHT22;10576;53.556;9.868;2022-10-16T05:08:50;11.80;99.90
20831;DHT22;10576;53.556;9.868;2022-10-16T05:11:16;11.80;99.90
20831;DHT22;10576;53.556;9.868;2022-10-16T05:13:41;11.80;99.90
20831;DHT22;10576;53.556;9.868;2022-10-16T05:16:07;11.70;99.90
20831;DHT22;10576;53.556;9.868;2022-10-16T05:18:33;11.70;99.90
20831;DHT22;10576;53.556;9.868;2022-10-16T05:20:58;11.70;99.90
20831;DHT22;10576;53.556;9.868;2022-10-16T05:23:24;11.70;99.90
20831;DHT22;10576;53.556;9.868;2022-10-16T05:25:56;11.70;99.90
20831;DHT22;10576;53.556;9.868;2022-10-16T05:28:24;11.70;99.90
20831;DHT22;10576;53.556;9.868;2022-10-16T05:30:50;11.70;99.90
20831;DHT22;10576;53.556;9.868;2022-10-16T05:33:16;11.80;99.90
20831;DHT22;10576;53.556;9.868;2022-10-16T05:35:42;11.80;99.90
20831;DHT22;10576;53.556;9.868;2022-10-16T05:38:07;11.80;99.90
20831;DHT22;10576;53.556;9.868;2022-10-16T05:40:33;11.80;99.90
20831;DHT22;10576;53.556;9.868;2022-10-16T05:42:59;11.80;99.90
20831;DHT22;10576;53.556;9.868;2022-10-16T05:45:24;11.70;99.90
20831;DHT22;10576;53.556;9.868;2022-10-16T05:47:50;11.70;99.90
20831;DHT22;10576;53.556;9.868;2022-10-16T05:50:16;11.80;99.90
20831;DHT22;10576;53.556;9.868;2022-10-16T05:52:42;11.80;99.90
20831;DHT22;10576;53.556;9.868;2022-10-16T05:55:08;11.80;99.90
20831;DHT22;10576;53.556;9.868;2022-10-16T05:57:33;11.80;99.90
20831;DHT22;10576;53.556;9.868;2022-10-16T05:59:59;11.80;99.90
20831;DHT22;10576;53.556;9.868;2022-10-16T06:02:25;11.80;99.90
20831;DHT22;10576;53.556;9.868;2022-10-16T06:04:54;11.90;99.90
20831;DHT22;10576;53.556;9.868;2022-10-16T06:07:20;11.90;99.90
20831;DHT22;10576;53.556;9.868;2022-10-16T06:09:52;11.90;99.90
20831;DHT22;10576;53.556;9.868;2022-10-16T06:12:17;11.90;99.90
20831;DHT22;10576;53.556;9.868;2022-10-16T06:14:44;12.00;99.90
20831;DHT22;10576;53.556;9.868;2022-10-16T06:17:10;11.90;99.90
20831;DHT22;10576;53.556;9.868;2022-10-16T06:19:36;11.90;99.90
20831;DHT22;10576;53.556;9.868;2022-10-16T06:22:01;11.90;99.90
20831;DHT22;10576;53.556;9.868;2022-10-16T06:24:28;11.90;99.90
20831;DHT22;10576;53.556;9.868;2022-10-16T06:26:53;11.90;99.90
20831;DHT22;10576;53.556;9.868;2022-10-16T06:29:19;11.90;99.90
20831;DHT22;10576;53.556;9.868;2022-10-16T06:31:45;11.90;99.90
20831;DHT22;10576;53.556;9.868;2022-10-16T06:34:11;12.00;99.90
20831;DHT22;10576;53.556;9.868;2022-10-16T06:36:38;12.00;99.90
20831;DHT22;10576;53.556;9.868;2022-10-16T06:39:04;12.00;99.90
20831;DHT22;10576;53.556;9.868;2022-10-16T06:41:32;12.00;99.90
20831;DHT22;10576;53.556;9.868;2022-10-16T06:43:58;12.00;99.90
20831;DHT22;10576;53.556;9.868;2022-10-16T06:46:24;12.00;99.90
20831;DHT22;10576;53.556;9.868;2022-10-16T06:48:50;12.10;99.90
20831;DHT22;10576;53.556;9.868;2022-10-16T06:51:18;12.10;99.90
20831;DHT22;10576;53.556;9.868;2022-10-16T06:53:46;12.10;99.90
20831;DHT22;10576;53.556;9.868;2022-10-16T06:56:22;12.20;99.90
20831;DHT22;10576;53.556;9.868;2022-10-16T06:58:49;12.30;99.90
20831;DHT22;10576;53.556;9.868;2022-10-16T07:01:16;12.40;99.90
20831;DHT22;10576;53.556;9.868;2022-10-16T07:03:43;12.50;99.90
20831;DHT22;10576;53.556;9.868;2022-10-16T07:06:11;12.60;99.90
20831;DHT22;10576;53.556;9.868;2022-10-16T07:08:39;12.80;99.90
20831;DHT22;10576;53.556;9.868;2022-10-16T07:11:08;12.90;99.90
20831;DHT22;10576;53.556;9.868;2022-10-16T07:13:35;12.90;99.90
20831;DHT22;10576;53.556;9.868;2022-10-16T07:16:21;12.90;99.90
20831;DHT22;10576;53.556;9.868;2022-10-16T07:18:48;13.00;99.90
20831;DHT22;10576;53.556;9.868;2022-10-16T07:21:20;13.00;99.90
20831;DHT22;10576;53.556;9.868;2022-10-16T07:23:58;13.10;99.90
20831;DHT22;10576;53.556;9.868;2022-10-16T07:26:25;13.10;99.90
20831;DHT22;10576;53.556;9.868;2022-10-16T07:28:51;13.10;99.90
20831;DHT22;10576;53.556;9.868;2022-10-16T07:31:19;13.10;99.90
20831;DHT22;10576;53.556;9.868;2022-10-16T07:33:45;13.10;99.90
20831;DHT22;10576;53.556;9.868;2022-10-16T07:36:14;13.20;99.90
20831;DHT22;10576;53.556;9.868;2022-10-16T07:38:40;13.30;99.90
20831;DHT22;10576;53.556;9.868;2022-10-16T07:41:13;13.40;99.90
20831;DHT22;10576;53.556;9.868;2022-10-16T07:43:39;13.60;99.90
20831;DHT22;10576;53.556;9.868;2022-10-16T07:46:05;13.90;99.90
20831;DHT22;10576;53.556;9.868;2022-10-16T07:48:32;14.00;99.90
20831;DHT22;10576;53.556;9.868;2022-10-16T07:51:03;14.10;99.90
20831;DHT22;10576;53.556;9.868;2022-10-16T07:53:29;14.10;99.90
20831;DHT22;10576;53.556;9.868;2022-10-16T07:56:04;14.20;99.90
20831;DHT22;10576;53.556;9.868;2022-10-16T07:58:30;14.20;99.90
20831;DHT22;10576;53.556;9.868;2022-10-16T08:00:56;14.10;99.90
20831;DHT22;10576;53.556;9.868;2022-10-16T08:03:22;14.10;99.90
20831;DHT22;10576;53.556;9.868;2022-10-16T08:05:49;14.10;99.90
20831;DHT22;10576;53.556;9.868;2022-10-16T08:08:16;14.00;99.90
20831;DHT22;10576;53.556;9.868;2022-10-16T08:10:42;14.00;99.90
20831;DHT22;10576;53.556;9.868;2022-10-16T08:13:08;14.00;99.90
20831;DHT22;10576;53.556;9.868;2022-10-16T08:15:33;14.00;99.90
20831;DHT22;10576;53.556;9.868;2022-10-16T08:18:03;13.90;99.90
20831;DHT22;10576;53.556;9.868;2022-10-16T08:20:31;14.00;99.90
20831;DHT22;10576;53.556;9.868;2022-10-16T08:22:57;14.10;99.90
20831;DHT22;10576;53.556;9.868;2022-10-16T08:25:23;14.20;99.90
20831;DHT22;10576;53.556;9.868;2022-10-16T08:27:49;14.50;99.90
20831;DHT22;10576;53.556;9.868;2022-10-16T08:30:16;14.70;99.90
20831;DHT22;10576;53.556;9.868;2022-10-16T08:32:42;14.80;99.90
20831;DHT22;10576;53.556;9.868;2022-10-16T08:35:12;14.90;99.90
20831;DHT22;10576;53.556;9.868;2022-10-16T08:37:38;15.00;99.90
20831;DHT22;10576;53.556;9.868;2022-10-16T08:40:06;15.20;99.90
20831;DHT22;10576;53.556;9.868;2022-10-16T08:50:42;15.40;99.90
20831;DHT22;10576;53.556;9.868;2022-10-16T08:53:16;15.30;99.90
20831;DHT22;10576;53.556;9.868;2022-10-16T08:55:49;15.30;99.90
20831;DHT22;10576;53.556;9.868;2022-10-16T08:58:42;15.50;99.90
20831;DHT22;10576;53.556;9.868;2022-10-16T09:01:13;15.50;99.90
20831;DHT22;10576;53.556;9.868;2022-10-16T09:12:07;15.90;99.90
20831;DHT22;10576;53.556;9.868;2022-10-16T09:17:59;16.10;99.90
20831;DHT22;10576;53.556;9.868;2022-10-16T09:23:27;16.20;99.90
20831;DHT22;10576;53.556;9.868;2022-10-16T09:25:54;16.30;99.90
20831;DHT22;10576;53.556;9.868;2022-10-16T09:28:20;16.50;99.90
20831;DHT22;10576;53.556;9.868;2022-10-16T09:30:46;16.50;99.90
20831;DHT22;10576;53.556;9.868;2022-10-16T09:33:16;16.50;99.90
20831;DHT22;10576;53.556;9.868;2022-10-16T09:35:44;16.40;99.90
20831;DHT22;10576;53.556;9.868;2022-10-16T09:38:31;16.30;99.90
20831;DHT22;10576;53.556;9.868;2022-10-16T09:40:59;16.30;99.90
20831;DHT22;10576;53.556;9.868;2022-10-16T09:43:35;16.30;99.90
20831;DHT22;10576;53.556;9.868;2022-10-16T09:46:07;16.40;99.90
20831;DHT22;10576;53.556;9.868;2022-10-16T09:48:39;16.30;99.90
20831;DHT22;10576;53.556;9.868;2022-10-16T09:51:20;16.30;99.90
20831;DHT22;10576;53.556;9.868;2022-10-16T09:53:47;16.40;99.90
20831;DHT22;10576;53.556;9.868;2022-10-16T09:56:29;16.30;99.90
20831;DHT22;10576;53.556;9.868;2022-10-16T09:59:01;16.40;99.90
20831;DHT22;10576;53.556;9.868;2022-10-16T10:01:36;16.50;99.90
20831;DHT22;10576;53.556;9.868;2022-10-16T10:04:06;16.40;99.90
20831;DHT22;10576;53.556;9.868;2022-10-16T10:06:40;16.40;99.90
20831;DHT22;10576;53.556;9.868;2022-10-16T10:11:54;16.40;99.90
20831;DHT22;10576;53.556;9.868;2022-10-16T10:14:24;16.50;99.90
20831;DHT22;10576;53.556;9.868;2022-10-16T10:16:52;16.50;99.90
20831;DHT22;10576;53.556;9.868;2022-10-16T10:19:21;16.40;99.90
20831;DHT22;10576;53.556;9.868;2022-10-16T10:21:47;16.50;99.90
20831;DHT22;10576;53.556;9.868;2022-10-16T10:24:14;16.50;99.90
20831;DHT22;10576;53.556;9.868;2022-10-16T10:38:41;16.80;99.90
20831;DHT22;10576;53.556;9.868;2022-10-16T10:41:16;16.90;99.90
20831;DHT22;10576;53.556;9.868;2022-10-16T10:46:32;17.10;99.90
20831;DHT22;10576;53.556;9.868;2022-10-16T10:57:08;17.10;99.90
20831;DHT22;10576;53.556;9.868;2022-10-16T11:05:48;17.20;99.90
20831;DHT22;10576;53.556;9.868;2022-10-16T11:11:14;17.50;99.90
20831;DHT22;10576;53.556;9.868;2022-10-16T11:13:55;17.50;99.90
20831;DHT22;10576;53.556;9.868;2022-10-16T11:16:27;17.60;99.90
20831;DHT22;10576;53.556;9.868;2022-10-16T11:21:30;17.60;99.90
20831;DHT22;10576;53.556;9.868;2022-10-16T11:24:04;17.60;99.90
20831;DHT22;10576;53.556;9.868;2022-10-16T11:26:39;17.70;99.90
20831;DHT22;10576;53.556;9.868;2022-10-16T11:29:15;17.90;99.90
20831;DHT22;10576;53.556;9.868;2022-10-16T11:32:11;17.90;99.90
20831;DHT22;10576;53.556;9.868;2022-10-16T11:34:47;17.80;99.90
20831;DHT22;10576;53.556;9.868;2022-10-16T11:37:41;17.70;99.90
20831;DHT22;10576;53.556;9.868;2022-10-16T11:42:48;17.50;99.90
20831;DHT22;10576;53.556;9.868;2022-10-16T11:45:23;17.60;99.90
20831;DHT22;10576;53.556;9.868;2022-10-16T11:48:28;17.60;99.90
20831;DHT22;10576;53.556;9.868;2022-10-16T11:51:08;17.60;99.90
20831;DHT22;10576;53.556;9.868;2022-10-16T11:54:29;17.50;99.90
20831;DHT22;10576;53.556;9.868;2022-10-16T11:56:38;17.50;99.90
20831;DHT22;10576;53.556;9.868;2022-10-16T11:59:13;17.30;99.90
20831;DHT22;10576;53.556;9.868;2022-10-16T12:01:56;17.30;99.90
20831;DHT22;10576;53.556;9.868;2022-10-16T12:07:04;17.40;99.90
20831;DHT22;10576;53.556;9.868;2022-10-16T12:09:32;17.50;99.90
20831;DHT22;10576;53.556;9.868;2022-10-16T12:12:00;17.70;99.90
20831;DHT22;10576;53.556;9.868;2022-10-16T12:19:42;17.80;99.90
20831;DHT22;10576;53.556;9.868;2022-10-16T12:22:18;17.70;99.90
20831;DHT22;10576;53.556;9.868;2022-10-16T12:24:44;17.70;99.90
20831;DHT22;10576;53.556;9.868;2022-10-16T12:27:39;17.70;99.90
20831;DHT22;10576;53.556;9.868;2022-10-16T12:30:05;17.80;99.90
20831;DHT22;10576;53.556;9.868;2022-10-16T12:32:34;17.90;99.90
20831;DHT22;10576;53.556;9.868;2022-10-16T12:35:02;17.90;99.90
20831;DHT22;10576;53.556;9.868;2022-10-16T12:37:36;17.80;99.90
20831;DHT22;10576;53.556;9.868;2022-10-16T12:42:53;17.80;99.90
20831;DHT22;10576;53.556;9.868;2022-10-16T12:47:54;17.80;99.90
20831;DHT22;10576;53.556;9.868;2022-10-16T12:52:49;17.90;99.90
20831;DHT22;10576;53.556;9.868;2022-10-16T12:55:20;17.80;99.90
20831;DHT22;10576;53.556;9.868;2022-10-16T12:58:28;17.80;99.90
20831;DHT22;10576;53.556;9.868;2022-10-16T13:00:57;17.90;99.90
20831;DHT22;10576;53.556;9.868;2022-10-16T13:06:39;17.80;99.90
20831;DHT22;10576;53.556;9.868;2022-10-16T13:09:23;17.70;99.90
20831;DHT22;10576;53.556;9.868;2022-10-16T13:18:03;17.50;99.90
20831;DHT22;10576;53.556;9.868;2022-10-16T13:28:00;17.30;99.90
20831;DHT22;10576;53.556;9.868;2022-10-16T13:30:28;17.20;99.90
20831;DHT22;10576;53.556;9.868;2022-10-16T13:33:20;17.20;99.90
20831;DHT22;10576;53.556;9.868;2022-10-16T13:35:51;17.10;99.90
20831;DHT22;10576;53.556;9.868;2022-10-16T13:38:20;17.00;99.90
20831;DHT22;10576;53.556;9.868;2022-10-16T13:40:56;17.00;99.90
20831;DHT22;10576;53.556;9.868;2022-10-16T13:43:25;16.90;99.90
20831;DHT22;10576;53.556;9.868;2022-10-16T13:46:03;16.80;99.90
20831;DHT22;10576;53.556;9.868;2022-10-16T13:48:30;16.90;99.90
20831;DHT22;10576;53.556;9.868;2022-10-16T13:51:12;17.00;99.90
20831;DHT22;10576;53.556;9.868;2022-10-16T13:53:38;17.00;99.90
20831;DHT22;10576;53.556;9.868;2022-10-16T13:56:07;17.00;99.90
20831;DHT22;10576;53.556;9.868;2022-10-16T13:58:33;17.10;99.90
20831;DHT22;10576;53.556;9.868;2022-10-16T14:01:02;17.10;99.90
20831;DHT22;10576;53.556;9.868;2022-10-16T14:03:30;17.10;99.90
20831;DHT22;10576;53.556;9.868;2022-10-16T14:05:59;17.10;99.90
20831;DHT22;10576;53.556;9.868;2022-10-16T14:08:26;17.10;99.90
20831;DHT22;10576;53.556;9.868;2022-10-16T14:10:55;17.10;99.90
20831;DHT22;10576;53.556;9.868;2022-10-16T14:13:44;17.20;99.90
20831;DHT22;10576;53.556;9.868;2022-10-16T14:16:17;17.10;99.90
20831;DHT22;10576;53.556;9.868;2022-10-16T14:18:48;17.20;99.90
20831;DHT22;10576;53.556;9.868;2022-10-16T14:21:19;17.10;99.90
20831;DHT22;10576;53.556;9.868;2022-10-16T14:23:45;17.20;99.90
20831;DHT22;10576;53.556;9.868;2022-10-16T14:28:39;17.10;99.90
20831;DHT22;10576;53.556;9.868;2022-10-16T14:33:52;17.00;99.90
20831;DHT22;10576;53.556;9.868;2022-10-16T14:36:18;16.90;99.90
20831;DHT22;10576;53.556;9.868;2022-10-16T14:41:23;16.80;99.90
20831;DHT22;10576;53.556;9.868;2022-10-16T14:43:52;16.80;99.90
20831;DHT22;10576;53.556;9.868;2022-10-16T14:46:21;16.70;99.90
20831;DHT22;10576;53.556;9.868;2022-10-16T14:48:57;16.70;99.90
20831;DHT22;10576;53.556;9.868;2022-10-16T14:51:25;16.70;99.90
20831;DHT22;10576;53.556;9.868;2022-10-16T14:53:51;16.80;99.90
20831;DHT22;10576;53.556;9.868;2022-10-16T14:56:22;16.70;99.90
20831;DHT22;10576;53.556;9.868;2022-10-16T14:58:50;16.70;99.90
20831;DHT22;10576;53.556;9.868;2022-10-16T15:01:16;16.60;99.90
20831;DHT22;10576;53.556;9.868;2022-10-16T15:03:43;16.60;99.90
20831;DHT22;10576;53.556;9.868;2022-10-16T15:06:14;16.50;99.90
20831;DHT22;10576;53.556;9.868;2022-10-16T15:08:40;16.50;99.90
20831;DHT22;10576;53.556;9.868;2022-10-16T15:11:17;16.50;99.90
20831;DHT22;10576;53.556;9.868;2022-10-16T15:13:43;16.40;99.90
20831;DHT22;10576;53.556;9.868;2022-10-16T15:16:14;16.30;99.90
20831;DHT22;10576;53.556;9.868;2022-10-16T15:18:40;16.30;99.90
20831;DHT22;10576;53.556;9.868;2022-10-16T15:21:06;16.30;99.90
20831;DHT22;10576;53.556;9.868;2022-10-16T15:23:32;16.20;99.90
20831;DHT22;10576;53.556;9.868;2022-10-16T15:25:58;16.20;99.90
20831;DHT22;10576;53.556;9.868;2022-10-16T15:28:25;16.20;99.90
20831;DHT22;10576;53.556;9.868;2022-10-16T15:30:53;16.20;99.90
20831;DHT22;10576;53.556;9.868;2022-10-16T15:33:21;16.10;99.90
20831;DHT22;10576;53.556;9.868;2022-10-16T15:35:49;16.00;99.90
20831;DHT22;10576;53.556;9.868;2022-10-16T15:38:16;15.90;99.90
20831;DHT22;10576;53.556;9.868;2022-10-16T15:40:42;15.80;99.90
20831;DHT22;10576;53.556;9.868;2022-10-16T15:43:08;15.80;99.90
20831;DHT22;10576;53.556;9.868;2022-10-16T15:45:34;15.80;99.90
20831;DHT22;10576;53.556;9.868;2022-10-16T15:48:00;15.60;99.90
20831;DHT22;10576;53.556;9.868;2022-10-16T15:50:26;15.60;99.90
20831;DHT22;10576;53.556;9.868;2022-10-16T15:52:52;15.50;99.90
20831;DHT22;10576;53.556;9.868;2022-10-16T15:55:17;15.40;99.90
20831;DHT22;10576;53.556;9.868;2022-10-16T15:57:44;15.40;99.90
20831;DHT22;10576;53.556;9.868;2022-10-16T16:00:15;15.30;99.90
20831;DHT22;10576;53.556;9.868;2022-10-16T16:02:42;15.30;99.90
20831;DHT22;10576;53.556;9.868;2022-10-16T16:05:09;15.20;99.90
20831;DHT22;10576;53.556;9.868;2022-10-16T16:07:35;15.10;99.90
20831;DHT22;10576;53.556;9.868;2022-10-16T16:10:03;15.00;99.90
20831;DHT22;10576;53.556;9.868;2022-10-16T16:12:29;14.90;99.90
20831;DHT22;10576;53.556;9.868;2022-10-16T16:14:55;14.90;99.90
20831;DHT22;10576;53.556;9.868;2022-10-16T16:17:21;14.90;99.90
20831;DHT22;10576;53.556;9.868;2022-10-16T16:19:46;14.80;99.90
20831;DHT22;10576;53.556;9.868;2022-10-16T16:22:12;14.80;99.90
20831;DHT22;10576;53.556;9.868;2022-10-16T16:24:38;14.70;99.90
20831;DHT22;10576;53.556;9.868;2022-10-16T16:27:03;14.60;99.90
20831;DHT22;10576;53.556;9.868;2022-10-16T16:29:29;14.50;99.90
20831;DHT22;10576;53.556;9.868;2022-10-16T16:31:54;14.40;99.90
20831;DHT22;10576;53.556;9.868;2022-10-16T16:34:26;14.40;99.90
20831;DHT22;10576;53.556;9.868;2022-10-16T16:36:53;14.40;99.90
20831;DHT22;10576;53.556;9.868;2022-10-16T16:39:19;14.30;99.90
20831;DHT22;10576;53.556;9.868;2022-10-16T16:41:44;14.30;99.90
20831;DHT22;10576;53.556;9.868;2022-10-16T16:44:14;14.20;99.90
20831;DHT22;10576;53.556;9.868;2022-10-16T16:46:41;14.10;99.90
20831;DHT22;10576;53.556;9.868;2022-10-16T16:49:09;13.90;99.90
20831;DHT22;10576;53.556;9.868;2022-10-16T16:51:37;13.90;99.90
20831;DHT22;10576;53.556;9.868;2022-10-16T16:54:03;13.80;99.90
20831;DHT22;10576;53.556;9.868;2022-10-16T16:56:29;13.80;99.90
20831;DHT22;10576;53.556;9.868;2022-10-16T16:58:56;13.70;99.90
20831;DHT22;10576;53.556;9.868;2022-10-16T17:01:24;13.70;99.90
20831;DHT22;10576;53.556;9.868;2022-10-16T17:03:52;13.60;99.90
20831;DHT22;10576;53.556;9.868;2022-10-16T17:06:19;13.50;99.90
20831;DHT22;10576;53.556;9.868;2022-10-16T17:08:45;13.40;99.90
20831;DHT22;10576;53.556;9.868;2022-10-16T17:11:13;13.40;99.90
20831;DHT22;10576;53.556;9.868;2022-10-16T17:13:39;13.30;99.90
20831;DHT22;10576;53.556;9.868;2022-10-16T17:16:06;13.30;99.90
20831;DHT22;10576;53.556;9.868;2022-10-16T17:18:32;13.20;99.90
20831;DHT22;10576;53.556;9.868;2022-10-16T17:20:59;13.20;99.90
20831;DHT22;10576;53.556;9.868;2022-10-16T17:23:25;13.00;99.90
20831;DHT22;10576;53.556;9.868;2022-10-16T17:25:51;13.00;99.90
20831;DHT22;10576;53.556;9.868;2022-10-16T17:28:19;12.90;99.90
20831;DHT22;10576;53.556;9.868;2022-10-16T17:30:45;12.90;99.90
20831;DHT22;10576;53.556;9.868;2022-10-16T17:33:11;12.80;99.90
20831;DHT22;10576;53.556;9.868;2022-10-16T17:35:45;12.80;99.90
20831;DHT22;10576;53.556;9.868;2022-10-16T17:38:13;12.80;99.90
20831;DHT22;10576;53.556;9.868;2022-10-16T17:40:39;12.70;99.90
20831;DHT22;10576;53.556;9.868;2022-10-16T17:43:05;12.80;99.90